Погода Белянинна неделю

Ростовская область, Россия

22 - 28 мая
  • 22мая
    Сегодня
    +11°
    +29°
    Ясно и безоблачно
    ВремяПогодаТемператураВлажностьДавлениеВетер, м/сВероятность осадков
    00:00Ясно и безоблачно+17°C49 %763 мм0.3 м/с2 %
    03:00Ясно и безоблачно+12°C71 %762 мм1.5 м/с2 %
    06:00Ясно и безоблачно+13°C68 %763 мм2.4 м/с2 %
    09:00Ясно и безоблачно+23°C41 %763 мм2.1 м/с2 %
    12:00Ясно и безоблачно+27°C23 %762 мм3.5 м/с2 %
    15:00Ясно и безоблачно+28°C22 %761 мм3.0 м/с2 %
    18:00Ясно и безоблачно+27°C28 %760 мм3.1 м/с2 %
    21:00Ясно и безоблачно+18°C52 %761 мм2.2 м/с2 %
  • 23мая
    Четверг
    +15°
    +29°
    Ясно и безоблачно
    ВремяПогодаТемператураВлажностьДавлениеВетер, м/сВероятность осадков
    00:00Ясно и безоблачно+14°C60 %761 мм2.5 м/с2 %
    03:00Ясно и безоблачно+12°C65 %761 мм2.4 м/с2 %
    06:00Ясно и безоблачно+14°C66 %761 мм2.6 м/с2 %
    09:00Ясно и безоблачно+23°C40 %761 мм2.8 м/с2 %
    12:00Ясно и безоблачно+28°C25 %761 мм5.2 м/с2 %
    15:00Ясно и безоблачно+29°C23 %760 мм5.1 м/с2 %
    18:00Ясно и безоблачно+27°C25 %759 мм4.5 м/с2 %
    21:00Ясно и безоблачно+20°C36 %760 мм3.5 м/с2 %
  • 24мая
    Пятница
    +11°
    +25°
    Ясно и безоблачно
    ВремяПогодаТемператураВлажностьДавлениеВетер, м/сВероятность осадков
    00:00Ясно и безоблачно+18°C49 %761 мм5.6 м/с2 %
    03:00Ясно и безоблачно+16°C63 %761 мм5.6 м/с2 %
    06:00Ясно и безоблачно+16°C67 %763 мм7.2 м/с2 %
    09:00Ясно и безоблачно+20°C41 %764 мм8.5 м/с2 %
    12:00Ясно и безоблачно+24°C33 %764 мм9.4 м/с2 %
    15:00Ясно и безоблачно+24°C27 %764 мм9.1 м/с2 %
    18:00Ясно и безоблачно+22°C21 %764 мм8.7 м/с2 %
    21:00Ясно и безоблачно+18°C23 %766 мм7.9 м/с2 %
  • 25мая
    Суббота
    +13°
    +24°
    Ясно и безоблачно
    ВремяПогодаТемператураВлажностьДавлениеВетер, м/сВероятность осадков
    00:00Ясно и безоблачно+15°C28 %766 мм7.4 м/с2 %
    03:00Ясно и безоблачно+13°C30 %767 мм6.8 м/с2 %
    06:00Ясно и безоблачно+12°C35 %767 мм6.6 м/с2 %
    09:00Ясно и безоблачно+17°C29 %768 мм8.0 м/с2 %
    12:00Ясно и безоблачно+21°C22 %767 мм8.2 м/с2 %
    15:00Ясно и безоблачно+23°C20 %766 мм8.3 м/с2 %
    18:00Ясно и безоблачно+23°C20 %765 мм7.8 м/с2 %
    21:00Ясно и безоблачно+18°C26 %765 мм5.9 м/с2 %
  • 26мая
    Воскресенье
    +14°
    +22°
    Практически безоблачно
    ВремяПогодаТемператураВлажностьДавлениеВетер, м/сВероятность осадков
    00:00Пасмурно, сплошная облачность+17°C27 %765 мм6.1 м/с2 %
    03:00Пасмурно, сплошная облачность+14°C30 %765 мм4.8 м/с2 %
    06:00Облачно с прояснениями+14°C39 %765 мм6.0 м/с4 %
    09:00Облачно с прояснениями+17°C35 %765 мм6.7 м/с4 %
    12:00Облачно с прояснениями+19°C30 %764 мм7.8 м/с5 %
    15:00Практически безоблачно+21°C24 %763 мм8.2 м/с6 %
    18:00Небольшая облачность+22°C22 %763 мм6.3 м/с3 %
    21:00Небольшая облачность+20°C22 %763 мм6.3 м/с9 %
Мы используем cookies
Соглашаюсь